sensor_id;sensor_type;location;lat;lon;timestamp;pressure;altitude;pressure_sealevel;temperature;humidity
51687;BME280;37774;52.192;4.584;2023-05-21T00:01:40;102031.47;;;11.16;100.00
51687;BME280;37774;52.192;4.584;2023-05-21T00:04:26;102044.41;;;11.11;100.00
51687;BME280;37774;52.192;4.584;2023-05-21T00:07:12;102059.25;;;11.19;100.00
51687;BME280;37774;52.192;4.584;2023-05-21T00:09:59;102045.34;;;11.17;100.00
51687;BME280;37774;52.192;4.584;2023-05-21T00:12:44;102053.19;;;11.20;100.00
51687;BME280;37774;52.192;4.584;2023-05-21T00:15:29;102060.94;;;11.14;100.00
51687;BME280;37774;52.192;4.584;2023-05-21T00:18:14;102062.69;;;11.16;100.00
51687;BME280;37774;52.192;4.584;2023-05-21T00:21:00;102081.75;;;11.14;100.00
51687;BME280;37774;52.192;4.584;2023-05-21T00:23:45;102079.97;;;11.13;100.00
51687;BME280;37774;52.192;4.584;2023-05-21T00:26:32;102083.34;;;11.01;100.00
51687;BME280;37774;52.192;4.584;2023-05-21T00:29:17;102092.81;;;10.97;100.00
51687;BME280;37774;52.192;4.584;2023-05-21T00:32:02;102083.25;;;10.93;100.00
51687;BME280;37774;52.192;4.584;2023-05-21T00:34:47;102086.66;;;10.89;100.00
51687;BME280;37774;52.192;4.584;2023-05-21T00:37:32;102083.22;;;10.90;100.00
51687;BME280;37774;52.192;4.584;2023-05-21T00:40:17;102095.28;;;10.85;100.00
51687;BME280;37774;52.192;4.584;2023-05-21T00:43:04;102095.22;;;10.77;100.00
51687;BME280;37774;52.192;4.584;2023-05-21T00:45:51;102092.59;;;10.75;100.00
51687;BME280;37774;52.192;4.584;2023-05-21T00:48:36;102079.66;;;10.81;100.00
51687;BME280;37774;52.192;4.584;2023-05-21T00:51:22;102080.50;;;10.79;100.00
51687;BME280;37774;52.192;4.584;2023-05-21T00:54:08;102090.91;;;10.80;100.00
51687;BME280;37774;52.192;4.584;2023-05-21T00:56:54;102084.06;;;10.87;100.00
51687;BME280;37774;52.192;4.584;2023-05-21T00:59:41;102088.38;;;10.85;100.00
51687;BME280;37774;52.192;4.584;2023-05-21T01:02:27;102103.22;;;10.97;100.00
51687;BME280;37774;52.192;4.584;2023-05-21T01:05:15;102092.84;;;10.99;100.00
51687;BME280;37774;52.192;4.584;2023-05-21T01:08:01;102097.28;;;11.09;100.00
51687;BME280;37774;52.192;4.584;2023-05-21T01:10:46;102098.25;;;11.17;100.00
51687;BME280;37774;52.192;4.584;2023-05-21T01:13:32;102092.31;;;11.29;100.00
51687;BME280;37774;52.192;4.584;2023-05-21T01:16:20;102086.28;;;11.38;100.00
51687;BME280;37774;52.192;4.584;2023-05-21T01:19:05;102095.91;;;11.45;100.00
51687;BME280;37774;52.192;4.584;2023-05-21T01:22:00;102095.94;;;11.51;100.00
51687;BME280;37774;52.192;4.584;2023-05-21T01:24:49;102101.22;;;11.58;100.00
51687;BME280;37774;52.192;4.584;2023-05-21T01:27:35;102108.25;;;11.66;100.00
51687;BME280;37774;52.192;4.584;2023-05-21T01:30:21;102118.63;;;11.63;100.00
51687;BME280;37774;52.192;4.584;2023-05-21T01:33:09;102114.31;;;11.68;100.00
51687;BME280;37774;52.192;4.584;2023-05-21T01:36:03;102135.22;;;11.73;100.00
51687;BME280;37774;52.192;4.584;2023-05-21T01:38:53;102142.22;;;11.82;100.00
51687;BME280;37774;52.192;4.584;2023-05-21T01:41:42;102157.00;;;11.84;100.00
51687;BME280;37774;52.192;4.584;2023-05-21T01:44:28;102160.53;;;11.91;100.00
51687;BME280;37774;52.192;4.584;2023-05-21T01:47:14;102165.75;;;11.94;100.00
51687;BME280;37774;52.192;4.584;2023-05-21T01:50:00;102174.44;;;11.93;100.00
51687;BME280;37774;52.192;4.584;2023-05-21T01:52:50;102172.72;;;11.98;100.00
51687;BME280;37774;52.192;4.584;2023-05-21T01:55:35;102176.31;;;12.10;100.00
51687;BME280;37774;52.192;4.584;2023-05-21T01:58:26;102180.66;;;12.08;100.00
51687;BME280;37774;52.192;4.584;2023-05-21T02:01:11;102186.75;;;12.13;100.00
51687;BME280;37774;52.192;4.584;2023-05-21T02:03:56;102186.81;;;12.18;100.00
51687;BME280;37774;52.192;4.584;2023-05-21T02:06:41;102202.44;;;12.19;100.00
51687;BME280;37774;52.192;4.584;2023-05-21T02:09:27;102234.56;;;12.18;100.00
51687;BME280;37774;52.192;4.584;2023-05-21T02:12:12;102234.56;;;12.18;100.00
51687;BME280;37774;52.192;4.584;2023-05-21T02:14:58;102238.03;;;12.17;100.00
51687;BME280;37774;52.192;4.584;2023-05-21T02:17:43;102239.84;;;12.23;100.00
51687;BME280;37774;52.192;4.584;2023-05-21T02:20:28;102252.06;;;12.30;100.00
51687;BME280;37774;52.192;4.584;2023-05-21T02:23:14;102249.44;;;12.25;100.00
51687;BME280;37774;52.192;4.584;2023-05-21T02:25:59;102252.06;;;12.29;100.00
51687;BME280;37774;52.192;4.584;2023-05-21T02:28:44;102258.19;;;12.34;100.00
51687;BME280;37774;52.192;4.584;2023-05-21T02:31:31;102267.72;;;12.33;100.00
51687;BME280;37774;52.192;4.584;2023-05-21T02:34:16;102266.88;;;12.37;100.00
51687;BME280;37774;52.192;4.584;2023-05-21T02:37:03;102259.09;;;12.39;100.00
51687;BME280;37774;52.192;4.584;2023-05-21T02:39:49;102265.16;;;12.39;100.00
51687;BME280;37774;52.192;4.584;2023-05-21T02:42:34;102263.44;;;12.41;100.00
51687;BME280;37774;52.192;4.584;2023-05-21T02:45:20;102270.41;;;12.41;100.00
51687;BME280;37774;52.192;4.584;2023-05-21T02:48:07;102269.53;;;12.42;100.00
51687;BME280;37774;52.192;4.584;2023-05-21T02:50:52;102246.97;;;12.44;100.00
51687;BME280;37774;52.192;4.584;2023-05-21T02:53:37;102254.78;;;12.46;100.00
51687;BME280;37774;52.192;4.584;2023-05-21T02:56:22;102254.81;;;12.49;100.00
51687;BME280;37774;52.192;4.584;2023-05-21T02:59:08;102256.56;;;12.51;100.00
51687;BME280;37774;52.192;4.584;2023-05-21T03:01:54;102259.19;;;12.51;100.00
51687;BME280;37774;52.192;4.584;2023-05-21T03:04:40;102260.03;;;12.52;100.00
51687;BME280;37774;52.192;4.584;2023-05-21T03:07:28;102263.50;;;12.51;100.00
51687;BME280;37774;52.192;4.584;2023-05-21T03:10:14;102265.25;;;12.50;100.00
51687;BME280;37774;52.192;4.584;2023-05-21T03:12:59;102269.59;;;12.53;100.00
51687;BME280;37774;52.192;4.584;2023-05-21T03:15:47;102267.00;;;12.53;100.00
51687;BME280;37774;52.192;4.584;2023-05-21T03:18:32;102262.66;;;12.53;100.00
51687;BME280;37774;52.192;4.584;2023-05-21T03:21:18;102258.28;;;12.51;100.00
51687;BME280;37774;52.192;4.584;2023-05-21T03:24:05;102263.56;;;12.55;100.00
51687;BME280;37774;52.192;4.584;2023-05-21T03:26:50;102267.91;;;12.56;100.00
51687;BME280;37774;52.192;4.584;2023-05-21T03:29:36;102280.94;;;12.58;100.00
51687;BME280;37774;52.192;4.584;2023-05-21T03:32:22;102288.78;;;12.60;100.00
51687;BME280;37774;52.192;4.584;2023-05-21T03:35:07;102280.97;;;12.60;100.00
51687;BME280;37774;52.192;4.584;2023-05-21T03:37:54;102276.63;;;12.62;100.00
51687;BME280;37774;52.192;4.584;2023-05-21T03:40:39;102289.63;;;12.57;100.00
51687;BME280;37774;52.192;4.584;2023-05-21T03:43:24;102272.25;;;12.54;100.00
51687;BME280;37774;52.192;4.584;2023-05-21T03:46:09;102280.91;;;12.55;100.00
51687;BME280;37774;52.192;4.584;2023-05-21T03:48:54;102278.34;;;12.60;100.00
51687;BME280;37774;52.192;4.584;2023-05-21T03:51:40;102288.78;;;12.61;100.00
51687;BME280;37774;52.192;4.584;2023-05-21T03:54:27;102287.91;;;12.57;100.00
51687;BME280;37774;52.192;4.584;2023-05-21T03:57:12;102285.28;;;12.54;100.00
51687;BME280;37774;52.192;4.584;2023-05-21T03:59:57;102289.63;;;12.57;100.00
51687;BME280;37774;52.192;4.584;2023-05-21T04:02:42;102282.72;;;12.61;100.00
51687;BME280;37774;52.192;4.584;2023-05-21T04:05:27;102284.44;;;12.63;100.00
51687;BME280;37774;52.192;4.584;2023-05-21T04:08:13;102290.56;;;12.64;100.00
51687;BME280;37774;52.192;4.584;2023-05-21T04:11:00;102299.28;;;12.69;100.00
51687;BME280;37774;52.192;4.584;2023-05-21T04:13:45;102301.03;;;12.70;100.00
51687;BME280;37774;52.192;4.584;2023-05-21T04:16:30;102306.25;;;12.70;100.00
51687;BME280;37774;52.192;4.584;2023-05-21T04:19:17;102301.03;;;12.70;100.00
51687;BME280;37774;52.192;4.584;2023-05-21T04:22:03;102307.09;;;12.70;100.00
51687;BME280;37774;52.192;4.584;2023-05-21T04:24:48;102307.16;;;12.75;100.00
51687;BME280;37774;52.192;4.584;2023-05-21T04:27:35;102305.41;;;12.73;100.00
51687;BME280;37774;52.192;4.584;2023-05-21T04:30:20;102315.88;;;12.76;100.00
51687;BME280;37774;52.192;4.584;2023-05-21T04:33:06;102314.09;;;12.73;100.00
51687;BME280;37774;52.192;4.584;2023-05-21T04:35:52;102310.66;;;12.76;100.00
51687;BME280;37774;52.192;4.584;2023-05-21T04:38:37;102312.38;;;12.77;100.00
51687;BME280;37774;52.192;4.584;2023-05-21T04:41:24;102315.88;;;12.80;100.00
51687;BME280;37774;52.192;4.584;2023-05-21T04:44:10;102321.13;;;12.82;100.00
51687;BME280;37774;52.192;4.584;2023-05-21T04:46:57;102319.38;;;12.82;100.00
51687;BME280;37774;52.192;4.584;2023-05-21T04:49:43;102320.22;;;12.81;100.00
51687;BME280;37774;52.192;4.584;2023-05-21T04:52:29;102322.88;;;12.86;100.00
51687;BME280;37774;52.192;4.584;2023-05-21T04:55:14;102325.50;;;12.88;100.00
51687;BME280;37774;52.192;4.584;2023-05-21T04:58:01;102323.78;;;12.93;100.00
51687;BME280;37774;52.192;4.584;2023-05-21T05:00:48;102329.00;;;12.93;100.00
51687;BME280;37774;52.192;4.584;2023-05-21T05:03:34;102325.56;;;12.95;100.00
51687;BME280;37774;52.192;4.584;2023-05-21T05:06:19;102328.13;;;12.94;100.00
51687;BME280;37774;52.192;4.584;2023-05-21T05:09:05;102322.09;;;12.99;100.00
51687;BME280;37774;52.192;4.584;2023-05-21T05:11:51;102332.50;;;12.98;100.00
51687;BME280;37774;52.192;4.584;2023-05-21T05:14:36;102323.84;;;13.02;100.00
51687;BME280;37774;52.192;4.584;2023-05-21T05:17:22;102320.38;;;13.05;100.00
51687;BME280;37774;52.192;4.584;2023-05-21T05:20:08;102316.06;;;13.10;100.00
51687;BME280;37774;52.192;4.584;2023-05-21T05:22:54;102320.41;;;13.12;100.00
51687;BME280;37774;52.192;4.584;2023-05-21T05:25:39;102318.78;;;13.27;100.00
51687;BME280;37774;52.192;4.584;2023-05-21T05:28:24;102316.19;;;13.35;100.00
51687;BME280;37774;52.192;4.584;2023-05-21T05:31:09;102317.09;;;13.41;100.00
51687;BME280;37774;52.192;4.584;2023-05-21T05:33:56;102324.97;;;13.46;100.00
51687;BME280;37774;52.192;4.584;2023-05-21T05:36:41;102325.00;;;13.58;100.00
51687;BME280;37774;52.192;4.584;2023-05-21T05:39:26;102314.59;;;13.71;100.00
51687;BME280;37774;52.192;4.584;2023-05-21T05:42:11;102318.06;;;13.70;100.00
51687;BME280;37774;52.192;4.584;2023-05-21T05:44:56;102309.41;;;13.82;100.00
51687;BME280;37774;52.192;4.584;2023-05-21T05:47:41;102313.78;;;13.86;100.00
51687;BME280;37774;52.192;4.584;2023-05-21T05:50:27;102313.81;;;13.98;100.00
51687;BME280;37774;52.192;4.584;2023-05-21T05:53:12;102314.69;;;14.02;100.00
51687;BME280;37774;52.192;4.584;2023-05-21T05:55:58;102321.66;;;14.11;100.00
51687;BME280;37774;52.192;4.584;2023-05-21T05:58:43;102317.31;;;14.14;100.00
51687;BME280;37774;52.192;4.584;2023-05-21T06:01:28;102319.94;;;14.33;100.00
51687;BME280;37774;52.192;4.584;2023-05-21T06:04:14;102326.91;;;14.23;100.00
51687;BME280;37774;52.192;4.584;2023-05-21T06:07:00;102334.75;;;14.28;100.00
51687;BME280;37774;52.192;4.584;2023-05-21T06:09:45;102367.84;;;14.21;100.00
51687;BME280;37774;52.192;4.584;2023-05-21T06:12:30;102371.34;;;14.29;100.00
51687;BME280;37774;52.192;4.584;2023-05-21T06:15:15;102369.63;;;14.42;100.00
51687;BME280;37774;52.192;4.584;2023-05-21T06:18:02;102372.28;;;14.53;100.00
51687;BME280;37774;52.192;4.584;2023-05-21T06:20:47;102383.59;;;14.55;100.00
51687;BME280;37774;52.192;4.584;2023-05-21T06:23:34;102380.09;;;14.55;100.00
51687;BME280;37774;52.192;4.584;2023-05-21T06:26:20;102394.94;;;14.53;100.00
51687;BME280;37774;52.192;4.584;2023-05-21T06:29:05;102387.97;;;14.41;100.00
51687;BME280;37774;52.192;4.584;2023-05-21T06:31:50;102389.69;;;14.53;100.00
51687;BME280;37774;52.192;4.584;2023-05-21T06:34:35;102376.63;;;14.59;100.00
51687;BME280;37774;52.192;4.584;2023-05-21T06:37:20;102378.34;;;14.51;100.00
51687;BME280;37774;52.192;4.584;2023-05-21T06:40:07;102369.69;;;14.72;100.00
51687;BME280;37774;52.192;4.584;2023-05-21T06:42:53;102368.75;;;14.68;100.00
51687;BME280;37774;52.192;4.584;2023-05-21T06:45:39;102360.94;;;14.74;100.00
51687;BME280;37774;52.192;4.584;2023-05-21T06:48:24;102358.31;;;14.96;100.00
51687;BME280;37774;52.192;4.584;2023-05-21T06:51:09;102358.31;;;14.98;100.00
51687;BME280;37774;52.192;4.584;2023-05-21T06:53:54;102352.19;;;15.05;100.00
51687;BME280;37774;52.192;4.584;2023-05-21T06:56:42;102361.78;;;15.08;100.00
51687;BME280;37774;52.192;4.584;2023-05-21T06:59:27;102358.31;;;14.99;100.00
51687;BME280;37774;52.192;4.584;2023-05-21T07:02:12;102360.03;;;15.10;100.00
51687;BME280;37774;52.192;4.584;2023-05-21T07:04:57;102357.44;;;15.10;100.00
51687;BME280;37774;52.192;4.584;2023-05-21T07:07:42;102361.78;;;15.14;100.00
51687;BME280;37774;52.192;4.584;2023-05-21T07:10:28;102367.88;;;15.08;100.00
51687;BME280;37774;52.192;4.584;2023-05-21T07:13:14;102367.03;;;14.97;100.00
51687;BME280;37774;52.192;4.584;2023-05-21T07:16:00;102369.66;;;15.08;100.00
51687;BME280;37774;52.192;4.584;2023-05-21T07:18:45;102362.63;;;15.25;100.00
51687;BME280;37774;52.192;4.584;2023-05-21T07:21:30;102361.72;;;15.29;100.00
51687;BME280;37774;52.192;4.584;2023-05-21T07:24:15;102370.44;;;15.30;100.00
51687;BME280;37774;52.192;4.584;2023-05-21T07:27:00;102366.09;;;15.26;100.00
51687;BME280;37774;52.192;4.584;2023-05-21T07:29:48;102366.06;;;15.35;100.00
51687;BME280;37774;52.192;4.584;2023-05-21T07:32:33;102369.56;;;15.34;100.00
51687;BME280;37774;52.192;4.584;2023-05-21T07:35:18;102365.16;;;15.48;100.00
51687;BME280;37774;52.192;4.584;2023-05-21T07:38:03;102375.63;;;15.55;100.00
51687;BME280;37774;52.192;4.584;2023-05-21T07:40:48;102370.28;;;15.75;100.00
51687;BME280;37774;52.192;4.584;2023-05-21T07:43:34;102378.13;;;15.90;100.00
51687;BME280;37774;52.192;4.584;2023-05-21T07:46:20;102381.59;;;15.85;100.00
51687;BME280;37774;52.192;4.584;2023-05-21T07:49:06;102377.16;;;16.05;100.00
51687;BME280;37774;52.192;4.584;2023-05-21T07:51:53;102377.22;;;15.93;100.00
51687;BME280;37774;52.192;4.584;2023-05-21T07:54:38;102360.66;;;15.88;100.00
51687;BME280;37774;52.192;4.584;2023-05-21T07:57:23;102367.53;;;16.08;100.00
51687;BME280;37774;52.192;4.584;2023-05-21T08:00:09;102358.63;;;16.30;100.00
51687;BME280;37774;52.192;4.584;2023-05-21T08:02:58;102349.03;;;16.28;100.00
51687;BME280;37774;52.192;4.584;2023-05-21T08:05:44;102364.66;;;16.42;100.00
51687;BME280;37774;52.192;4.584;2023-05-21T08:08:31;102356.75;;;16.48;100.00
51687;BME280;37774;52.192;4.584;2023-05-21T08:11:16;102354.75;;;16.78;100.00
51687;BME280;37774;52.192;4.584;2023-05-21T08:14:01;102350.38;;;16.77;100.00
51687;BME280;37774;52.192;4.584;2023-05-21T08:16:46;102354.91;;;16.59;100.00
51687;BME280;37774;52.192;4.584;2023-05-21T08:19:33;102349.59;;;16.64;100.00
51687;BME280;37774;52.192;4.584;2023-05-21T08:22:18;102351.94;;;16.97;100.00
51687;BME280;37774;52.192;4.584;2023-05-21T08:25:03;102350.41;;;16.72;100.00
51687;BME280;37774;52.192;4.584;2023-05-21T08:27:48;102351.97;;;16.98;100.00
51687;BME280;37774;52.192;4.584;2023-05-21T08:30:33;102350.97;;;17.08;100.00
51687;BME280;37774;52.192;4.584;2023-05-21T08:33:19;102351.94;;;16.95;100.00
51687;BME280;37774;52.192;4.584;2023-05-21T08:36:05;102352.69;;;17.11;100.00
51687;BME280;37774;52.192;4.584;2023-05-21T08:38:51;102345.59;;;17.21;100.00
51687;BME280;37774;52.192;4.584;2023-05-21T08:41:36;102341.25;;;17.15;100.00
51687;BME280;37774;52.192;4.584;2023-05-21T08:44:22;102333.75;;;17.56;100.00
51687;BME280;37774;52.192;4.584;2023-05-21T08:47:09;102332.09;;;17.50;100.00
51687;BME280;37774;52.192;4.584;2023-05-21T08:49:56;102335.50;;;17.59;100.00
51687;BME280;37774;52.192;4.584;2023-05-21T08:52:44;102335.34;;;17.70;100.00
51687;BME280;37774;52.192;4.584;2023-05-21T08:55:29;102326.38;;;17.85;100.00
51687;BME280;37774;52.192;4.584;2023-05-21T08:58:15;102334.63;;;18.22;100.00
51687;BME280;37774;52.192;4.584;2023-05-21T09:01:00;102337.16;;;18.27;100.00
51687;BME280;37774;52.192;4.584;2023-05-21T09:03:47;102332.72;;;18.29;100.00
51687;BME280;37774;52.192;4.584;2023-05-21T09:06:33;102334.16;;;18.50;100.00
51687;BME280;37774;52.192;4.584;2023-05-21T09:09:20;102323.09;;;18.30;100.00
51687;BME280;37774;52.192;4.584;2023-05-21T09:12:08;102321.56;;;18.68;100.00
51687;BME280;37774;52.192;4.584;2023-05-21T09:14:54;102314.44;;;18.73;100.00
51687;BME280;37774;52.192;4.584;2023-05-21T09:17:41;102310.56;;;18.93;100.00
51687;BME280;37774;52.192;4.584;2023-05-21T09:20:27;102307.25;;;18.83;100.00
51687;BME280;37774;52.192;4.584;2023-05-21T09:23:13;102307.88;;;18.97;100.00
51687;BME280;37774;52.192;4.584;2023-05-21T09:26:09;102302.63;;;18.97;100.00
51687;BME280;37774;52.192;4.584;2023-05-21T09:28:55;102294.31;;;19.18;100.00
51687;BME280;37774;52.192;4.584;2023-05-21T09:31:41;102276.22;;;18.99;100.00
51687;BME280;37774;52.192;4.584;2023-05-21T09:34:27;102262.81;;;19.11;100.00
51687;BME280;37774;52.192;4.584;2023-05-21T09:37:12;102272.78;;;19.38;100.00
51687;BME280;37774;52.192;4.584;2023-05-21T09:39:57;102260.34;;;19.45;100.00
51687;BME280;37774;52.192;4.584;2023-05-21T09:42:44;102260.44;;;19.79;100.00
51687;BME280;37774;52.192;4.584;2023-05-21T09:45:29;102241.53;;;19.60;100.00
51687;BME280;37774;52.192;4.584;2023-05-21T09:48:14;102208.91;;;19.66;100.00
51687;BME280;37774;52.192;4.584;2023-05-21T09:51:12;102200.69;;;19.78;100.00
51687;BME280;37774;52.192;4.584;2023-05-21T09:53:58;102187.91;;;19.99;100.00
51687;BME280;37774;52.192;4.584;2023-05-21T09:56:44;102187.31;;;20.21;100.00
51687;BME280;37774;52.192;4.584;2023-05-21T09:59:37;102191.84;;;20.16;100.00
51687;BME280;37774;52.192;4.584;2023-05-21T10:02:24;102195.44;;;20.46;100.00
51687;BME280;37774;52.192;4.584;2023-05-21T10:05:10;102208.06;;;20.66;100.00
51687;BME280;37774;52.192;4.584;2023-05-21T10:07:57;102195.81;;;19.99;100.00
51687;BME280;37774;52.192;4.584;2023-05-21T10:10:43;102193.53;;;19.83;100.00
51687;BME280;37774;52.192;4.584;2023-05-21T10:13:30;102217.16;;;20.89;100.00
51687;BME280;37774;52.192;4.584;2023-05-21T10:16:17;102223.19;;;20.61;100.00
51687;BME280;37774;52.192;4.584;2023-05-21T10:19:02;102224.56;;;21.06;100.00
51687;BME280;37774;52.192;4.584;2023-05-21T10:21:47;102225.94;;;21.48;100.00
51687;BME280;37774;52.192;4.584;2023-05-21T10:24:33;102226.91;;;21.17;100.00
51687;BME280;37774;52.192;4.584;2023-05-21T10:27:19;102238.91;;;21.29;100.00
51687;BME280;37774;52.192;4.584;2023-05-21T10:30:06;102230.38;;;21.48;100.00
51687;BME280;37774;52.192;4.584;2023-05-21T10:32:53;102231.63;;;21.36;100.00
51687;BME280;37774;52.192;4.584;2023-05-21T10:35:39;102229.31;;;20.95;100.00
51687;BME280;37774;52.192;4.584;2023-05-21T10:38:24;102219.22;;;20.46;100.00
51687;BME280;37774;52.192;4.584;2023-05-21T10:41:11;102212.47;;;20.34;100.00
51687;BME280;37774;52.192;4.584;2023-05-21T10:44:00;102222.19;;;20.34;100.00
51687;BME280;37774;52.192;4.584;2023-05-21T10:46:55;102229.28;;;20.63;100.00
51687;BME280;37774;52.192;4.584;2023-05-21T10:49:48;102244.25;;;21.54;100.00
51687;BME280;37774;52.192;4.584;2023-05-21T10:52:42;102248.75;;;21.24;100.00
51687;BME280;37774;52.192;4.584;2023-05-21T10:55:33;102256.03;;;22.01;100.00
51687;BME280;37774;52.192;4.584;2023-05-21T10:58:28;102248.28;;;21.68;100.00
51687;BME280;37774;52.192;4.584;2023-05-21T11:01:16;102239.44;;;21.69;100.00
51687;BME280;37774;52.192;4.584;2023-05-21T11:04:02;102239.44;;;21.96;100.00
51687;BME280;37774;52.192;4.584;2023-05-21T11:06:49;102239.94;;;22.07;100.00
51687;BME280;37774;52.192;4.584;2023-05-21T11:09:34;102232.47;;;21.93;100.00
51687;BME280;37774;52.192;4.584;2023-05-21T11:12:19;102228.25;;;21.87;100.00
51687;BME280;37774;52.192;4.584;2023-05-21T11:15:06;102237.16;;;22.37;100.00
51687;BME280;37774;52.192;4.584;2023-05-21T11:17:51;102238.38;;;22.28;100.00
51687;BME280;37774;52.192;4.584;2023-05-21T11:20:41;102219.84;;;22.01;100.00
51687;BME280;37774;52.192;4.584;2023-05-21T11:23:41;102221.59;;;22.28;100.00
51687;BME280;37774;52.192;4.584;2023-05-21T11:29:38;102213.28;;;22.39;100.00
51687;BME280;37774;52.192;4.584;2023-05-21T11:32:24;102223.00;;;22.64;100.00
51687;BME280;37774;52.192;4.584;2023-05-21T11:35:09;102232.56;;;22.42;100.00
51687;BME280;37774;52.192;4.584;2023-05-21T11:37:57;102239.56;;;22.45;100.00
51687;BME280;37774;52.192;4.584;2023-05-21T11:40:50;102282.44;;;22.56;100.00
51687;BME280;37774;52.192;4.584;2023-05-21T11:43:38;102478.72;;;22.18;100.00
51687;BME280;37774;52.192;4.584;2023-05-21T11:46:23;102808.03;;;22.49;100.00
51687;BME280;37774;52.192;4.584;2023-05-21T11:49:09;102920.72;;;22.63;100.00
51687;BME280;37774;52.192;4.584;2023-05-21T11:51:54;102698.91;;;22.66;100.00
51687;BME280;37774;52.192;4.584;2023-05-21T11:54:41;102131.13;;;22.40;100.00
51687;BME280;37774;52.192;4.584;2023-05-21T11:57:30;101915.94;;;23.21;100.00
51687;BME280;37774;52.192;4.584;2023-05-21T12:00:15;101917.63;;;23.63;100.00
51687;BME280;37774;52.192;4.584;2023-05-21T12:03:00;101927.81;;;23.54;100.00
51687;BME280;37774;52.192;4.584;2023-05-21T12:05:45;101898.16;;;24.03;100.00
51687;BME280;37774;52.192;4.584;2023-05-21T12:08:31;101900.25;;;23.37;100.00
51687;BME280;37774;52.192;4.584;2023-05-21T12:11:16;101885.84;;;23.43;100.00
51687;BME280;37774;52.192;4.584;2023-05-21T12:14:02;101877.84;;;23.24;100.00
51687;BME280;37774;52.192;4.584;2023-05-21T12:16:47;101875.69;;;23.53;100.00
51687;BME280;37774;52.192;4.584;2023-05-21T12:19:32;101888.22;;;23.49;100.00
51687;BME280;37774;52.192;4.584;2023-05-21T12:22:18;101893.59;;;23.86;100.00
51687;BME280;37774;52.192;4.584;2023-05-21T12:25:03;101869.78;;;23.84;100.00
51687;BME280;37774;52.192;4.584;2023-05-21T12:27:48;101884.28;;;23.77;100.00
51687;BME280;37774;52.192;4.584;2023-05-21T12:30:36;101881.44;;;24.01;100.00
51687;BME280;37774;52.192;4.584;2023-05-21T12:33:21;101879.56;;;23.45;100.00
51687;BME280;37774;52.192;4.584;2023-05-21T12:36:08;101881.28;;;23.85;100.00
51687;BME280;37774;52.192;4.584;2023-05-21T12:38:54;101877.25;;;23.57;100.00
51687;BME280;37774;52.192;4.584;2023-05-21T12:41:39;101873.69;;;23.58;100.00
51687;BME280;37774;52.192;4.584;2023-05-21T12:44:28;101868.06;;;23.83;100.00
51687;BME280;37774;52.192;4.584;2023-05-21T12:47:14;101869.38;;;23.74;100.00
51687;BME280;37774;52.192;4.584;2023-05-21T12:50:01;101860.84;;;23.48;100.00
51687;BME280;37774;52.192;4.584;2023-05-21T12:52:46;101862.19;;;23.76;100.00
51687;BME280;37774;52.192;4.584;2023-05-21T12:55:31;101876.31;;;23.77;100.00
51687;BME280;37774;52.192;4.584;2023-05-21T12:58:20;101865.00;;;23.92;100.00
51687;BME280;37774;52.192;4.584;2023-05-21T13:01:05;101873.16;;;23.69;100.00
51687;BME280;37774;52.192;4.584;2023-05-21T13:03:52;101873.00;;;23.91;100.00
51687;BME280;37774;52.192;4.584;2023-05-21T13:06:40;101857.66;;;23.98;100.00
51687;BME280;37774;52.192;4.584;2023-05-21T13:09:26;101863.75;;;24.19;100.00
51687;BME280;37774;52.192;4.584;2023-05-21T13:12:11;101861.69;;;23.87;100.00
51687;BME280;37774;52.192;4.584;2023-05-21T13:14:58;101857.38;;;23.66;100.00
51687;BME280;37774;52.192;4.584;2023-05-21T13:17:43;101854.78;;;23.83;100.00
51687;BME280;37774;52.192;4.584;2023-05-21T13:20:30;101865.88;;;24.47;100.00
51687;BME280;37774;52.192;4.584;2023-05-21T13:23:15;101852.28;;;24.54;100.00
51687;BME280;37774;52.192;4.584;2023-05-21T13:26:00;101865.13;;;24.09;100.00
51687;BME280;37774;52.192;4.584;2023-05-21T13:28:45;101851.56;;;24.15;100.00
51687;BME280;37774;52.192;4.584;2023-05-21T13:31:30;101861.97;;;24.37;100.00
51687;BME280;37774;52.192;4.584;2023-05-21T13:34:15;101855.56;;;24.41;100.00
51687;BME280;37774;52.192;4.584;2023-05-21T13:37:02;101850.31;;;24.22;100.00
51687;BME280;37774;52.192;4.584;2023-05-21T13:39:47;101845.41;;;24.32;100.00
51687;BME280;37774;52.192;4.584;2023-05-21T13:42:32;101844.94;;;24.24;100.00
51687;BME280;37774;52.192;4.584;2023-05-21T13:45:17;101834.53;;;24.19;100.00
51687;BME280;37774;52.192;4.584;2023-05-21T13:48:03;101850.69;;;23.95;100.00
51687;BME280;37774;52.192;4.584;2023-05-21T13:50:49;101842.31;;;23.85;100.00
51687;BME280;37774;52.192;4.584;2023-05-21T13:53:35;101835.09;;;24.08;100.00
51687;BME280;37774;52.192;4.584;2023-05-21T13:56:20;101843.38;;;24.72;100.00
51687;BME280;37774;52.192;4.584;2023-05-21T13:59:06;101848.84;;;24.16;100.00
51687;BME280;37774;52.192;4.584;2023-05-21T14:01:51;101831.69;;;24.04;100.00
51687;BME280;37774;52.192;4.584;2023-05-21T14:04:37;101829.72;;;24.62;100.00
51687;BME280;37774;52.192;4.584;2023-05-21T14:07:22;101838.91;;;24.38;100.00
51687;BME280;37774;52.192;4.584;2023-05-21T14:10:09;101843.69;;;24.48;100.00
51687;BME280;37774;52.192;4.584;2023-05-21T14:12:54;101838.88;;;24.74;100.00
51687;BME280;37774;52.192;4.584;2023-05-21T14:15:39;101830.72;;;24.07;100.00
51687;BME280;37774;52.192;4.584;2023-05-21T14:18:24;101831.34;;;24.65;100.00
51687;BME280;37774;52.192;4.584;2023-05-21T14:21:09;101826.19;;;24.44;100.00